EHEH/EIN METAR and TAF weather

Enter ICAO airport designator
Station Type Date Time Source
EHEH METAR 2021/07/28 02:55 UTC NOAA

EHEH 280255Z AUTO 15005KT 140V200 8000 BR OVC012 15/14 Q1009 GRN


Station Type Date Time Source
EHEH Decoded METAR 2021/07/28 02:55 UTC NOAA

Eindhoven, Netherlands (EHEH) 51-27N 005-25E 28M
Jul 27, 2021 - 10:55 PM EDT / 2021.07.28 0255 UTC
Wind: from the SSE (150 degrees) at 6 MPH (5 KT) (direction variable):0
Visibility: 4 mile(s):0
Sky conditions: overcast
Weather: mist
Temperature: 59 F (15 C)
Dew Point: 57 F (14 C)
Relative Humidity: 93%
Pressure (altimeter): 29.80 in. Hg (1009 hPa)
ob: EHEH 280255Z AUTO 15005KT 140V200 8000 BR OVC012 15/14 Q1009 GRN
cycle: 3

Station Type Date Time Source
EHEH TAF 2021/07/28 00:00 UTC NOAA

TAF EHEH 272317Z 2800/2906 19004KT 9999 FEW040 PROB40 2801/2805 3000 BR
BECMG 2806/2809 22012G23KT
TEMPO 2806/2810 SCT010 SCT015
TEMPO 2806/2824 23015G30KT 4000 SHRA FEW010 SCT020CB BKN025
BECMG 2818/2821 22010KT PROB40
TEMPO 2900/2906 24015G30KT 4500 SHRA FEW012 SCT020CB
BECMG 2905/2906 24015G25KT

Example: see airport list